sensor_id;sensor_type;location;lat;lon;timestamp;temperature;humidity
4433;DHT22;2229;48.708;9.706;2022-12-18T00:00:00;-5.90;97.30
4433;DHT22;2229;48.708;9.706;2022-12-18T00:02:27;-5.80;97.30
4433;DHT22;2229;48.708;9.706;2022-12-18T00:04:55;-5.80;97.20
4433;DHT22;2229;48.708;9.706;2022-12-18T00:07:23;-5.80;97.20
4433;DHT22;2229;48.708;9.706;2022-12-18T00:09:51;-5.80;97.00
4433;DHT22;2229;48.708;9.706;2022-12-18T00:12:18;-5.70;97.00
4433;DHT22;2229;48.708;9.706;2022-12-18T00:14:46;-5.80;96.80
4433;DHT22;2229;48.708;9.706;2022-12-18T00:17:13;-5.80;96.70
4433;DHT22;2229;48.708;9.706;2022-12-18T00:19:40;-5.80;96.70
4433;DHT22;2229;48.708;9.706;2022-12-18T00:22:07;-5.80;96.70
4433;DHT22;2229;48.708;9.706;2022-12-18T00:24:36;-5.80;96.40
4433;DHT22;2229;48.708;9.706;2022-12-18T00:27:03;-5.80;96.40
4433;DHT22;2229;48.708;9.706;2022-12-18T00:29:31;-5.70;96.50
4433;DHT22;2229;48.708;9.706;2022-12-18T00:31:58;-5.80;96.40
4433;DHT22;2229;48.708;9.706;2022-12-18T00:34:25;-5.80;96.50
4433;DHT22;2229;48.708;9.706;2022-12-18T00:36:52;-5.90;96.50
4433;DHT22;2229;48.708;9.706;2022-12-18T00:39:21;-5.90;96.50
4433;DHT22;2229;48.708;9.706;2022-12-18T00:41:52;-5.90;96.50
4433;DHT22;2229;48.708;9.706;2022-12-18T00:44:37;-5.90;96.60
4433;DHT22;2229;48.708;9.706;2022-12-18T00:47:04;-5.90;96.50
4433;DHT22;2229;48.708;9.706;2022-12-18T00:49:33;-5.80;96.50
4433;DHT22;2229;48.708;9.706;2022-12-18T00:52:01;-5.90;96.60
4433;DHT22;2229;48.708;9.706;2022-12-18T00:54:28;-5.90;96.70
4433;DHT22;2229;48.708;9.706;2022-12-18T00:56:57;-5.90;96.70
4433;DHT22;2229;48.708;9.706;2022-12-18T00:59:25;-5.00;97.10
4433;DHT22;2229;48.708;9.706;2022-12-18T01:01:52;-6.00;96.70
4433;DHT22;2229;48.708;9.706;2022-12-18T01:04:20;-6.00;96.70
4433;DHT22;2229;48.708;9.706;2022-12-18T01:06:47;-6.00;96.70
4433;DHT22;2229;48.708;9.706;2022-12-18T01:09:15;-5.90;96.50
4433;DHT22;2229;48.708;9.706;2022-12-18T01:11:43;-6.00;96.40
4433;DHT22;2229;48.708;9.706;2022-12-18T01:14:12;-6.00;96.40
4433;DHT22;2229;48.708;9.706;2022-12-18T01:16:39;-6.10;96.30
4433;DHT22;2229;48.708;9.706;2022-12-18T01:19:07;-6.00;96.50
4433;DHT22;2229;48.708;9.706;2022-12-18T01:21:35;-6.60;96.20
4433;DHT22;2229;48.708;9.706;2022-12-18T01:24:04;-6.10;96.40
4433;DHT22;2229;48.708;9.706;2022-12-18T01:26:33;-6.10;96.40
4433;DHT22;2229;48.708;9.706;2022-12-18T01:29:01;-6.20;96.30
4433;DHT22;2229;48.708;9.706;2022-12-18T01:31:33;-6.10;96.30
4433;DHT22;2229;48.708;9.706;2022-12-18T01:34:02;-6.20;96.30
4433;DHT22;2229;48.708;9.706;2022-12-18T01:36:32;-6.20;96.40
4433;DHT22;2229;48.708;9.706;2022-12-18T01:39:01;-6.20;96.40
4433;DHT22;2229;48.708;9.706;2022-12-18T01:41:31;-6.20;96.40
4433;DHT22;2229;48.708;9.706;2022-12-18T01:47:26;-6.20;96.40
4433;DHT22;2229;48.708;9.706;2022-12-18T01:49:57;-6.30;96.20
4433;DHT22;2229;48.708;9.706;2022-12-18T01:52:26;-6.30;96.30
4433;DHT22;2229;48.708;9.706;2022-12-18T01:54:56;-6.30;96.40
4433;DHT22;2229;48.708;9.706;2022-12-18T01:57:26;-6.30;96.40
4433;DHT22;2229;48.708;9.706;2022-12-18T01:59:56;-6.30;96.50
4433;DHT22;2229;48.708;9.706;2022-12-18T02:02:28;-6.40;96.60
4433;DHT22;2229;48.708;9.706;2022-12-18T02:04:55;-6.50;96.80
4433;DHT22;2229;48.708;9.706;2022-12-18T02:07:29;-6.40;96.70
4433;DHT22;2229;48.708;9.706;2022-12-18T02:10:04;-6.40;96.60
4433;DHT22;2229;48.708;9.706;2022-12-18T02:12:41;-6.40;96.60
4433;DHT22;2229;48.708;9.706;2022-12-18T02:15:13;-6.40;96.80
4433;DHT22;2229;48.708;9.706;2022-12-18T02:17:48;-6.40;97.00
4433;DHT22;2229;48.708;9.706;2022-12-18T02:20:21;-6.00;97.50
4433;DHT22;2229;48.708;9.706;2022-12-18T02:23:01;-6.50;97.40
4433;DHT22;2229;48.708;9.706;2022-12-18T02:25:52;-6.50;97.40
4433;DHT22;2229;48.708;9.706;2022-12-18T02:28:23;-6.50;97.40
4433;DHT22;2229;48.708;9.706;2022-12-18T02:30:56;-6.50;97.60
4433;DHT22;2229;48.708;9.706;2022-12-18T02:33:27;-6.50;97.70
4433;DHT22;2229;48.708;9.706;2022-12-18T02:35:56;-6.50;98.00
4433;DHT22;2229;48.708;9.706;2022-12-18T02:38:25;-6.50;98.30
4433;DHT22;2229;48.708;9.706;2022-12-18T02:40:57;-6.50;98.70
4433;DHT22;2229;48.708;9.706;2022-12-18T02:43:25;-6.40;98.50
4433;DHT22;2229;48.708;9.706;2022-12-18T02:45:56;-6.40;98.40
4433;DHT22;2229;48.708;9.706;2022-12-18T02:48:29;-6.50;98.40
4433;DHT22;2229;48.708;9.706;2022-12-18T02:51:03;-6.40;98.60
4433;DHT22;2229;48.708;9.706;2022-12-18T02:53:38;-6.40;98.60
4433;DHT22;2229;48.708;9.706;2022-12-18T02:56:15;-6.50;98.60
4433;DHT22;2229;48.708;9.706;2022-12-18T02:58:49;-6.40;98.60
4433;DHT22;2229;48.708;9.706;2022-12-18T03:01:33;-6.40;98.60
4433;DHT22;2229;48.708;9.706;2022-12-18T03:04:06;-6.40;98.80
4433;DHT22;2229;48.708;9.706;2022-12-18T03:06:37;-6.40;99.00
4433;DHT22;2229;48.708;9.706;2022-12-18T03:09:09;-6.20;99.40
4433;DHT22;2229;48.708;9.706;2022-12-18T03:11:41;-6.40;99.50
4433;DHT22;2229;48.708;9.706;2022-12-18T03:14:30;-6.30;99.90
4433;DHT22;2229;48.708;9.706;2022-12-18T03:17:02;-6.40;99.60
4433;DHT22;2229;48.708;9.706;2022-12-18T03:19:32;-6.40;99.80
4433;DHT22;2229;48.708;9.706;2022-12-18T03:22:03;-6.30;99.90
4433;DHT22;2229;48.708;9.706;2022-12-18T03:24:41;-6.30;99.90
4433;DHT22;2229;48.708;9.706;2022-12-18T03:27:13;-6.30;99.90
4433;DHT22;2229;48.708;9.706;2022-12-18T03:29:45;-6.20;99.90
4433;DHT22;2229;48.708;9.706;2022-12-18T03:32:21;-6.20;99.90
4433;DHT22;2229;48.708;9.706;2022-12-18T03:34:53;-6.20;99.90
4433;DHT22;2229;48.708;9.706;2022-12-18T03:37:23;-6.20;99.90
4433;DHT22;2229;48.708;9.706;2022-12-18T03:39:52;-6.10;99.90
4433;DHT22;2229;48.708;9.706;2022-12-18T03:42:24;-6.00;99.90
4433;DHT22;2229;48.708;9.706;2022-12-18T03:45:05;-6.00;99.90
4433;DHT22;2229;48.708;9.706;2022-12-18T03:47:38;-5.90;99.90
4433;DHT22;2229;48.708;9.706;2022-12-18T03:50:12;-5.90;99.90
4433;DHT22;2229;48.708;9.706;2022-12-18T03:52:50;-5.80;99.90
4433;DHT22;2229;48.708;9.706;2022-12-18T03:55:21;-5.80;99.90
4433;DHT22;2229;48.708;9.706;2022-12-18T03:57:57;-5.70;99.90
4433;DHT22;2229;48.708;9.706;2022-12-18T04:00:30;-5.70;99.90
4433;DHT22;2229;48.708;9.706;2022-12-18T04:03:06;-5.60;99.90
4433;DHT22;2229;48.708;9.706;2022-12-18T04:05:42;-5.60;99.90
4433;DHT22;2229;48.708;9.706;2022-12-18T04:08:10;-5.60;99.90
4433;DHT22;2229;48.708;9.706;2022-12-18T04:10:42;-5.60;99.90
4433;DHT22;2229;48.708;9.706;2022-12-18T04:13:11;-5.60;99.90
4433;DHT22;2229;48.708;9.706;2022-12-18T04:15:40;-5.60;99.90
4433;DHT22;2229;48.708;9.706;2022-12-18T04:18:12;-5.50;99.90
4433;DHT22;2229;48.708;9.706;2022-12-18T04:20:42;-5.50;99.90
4433;DHT22;2229;48.708;9.706;2022-12-18T04:23:10;-5.50;99.90
4433;DHT22;2229;48.708;9.706;2022-12-18T04:25:38;-5.50;99.90
4433;DHT22;2229;48.708;9.706;2022-12-18T04:28:12;-5.50;99.90
4433;DHT22;2229;48.708;9.706;2022-12-18T04:30:39;-5.40;99.90
4433;DHT22;2229;48.708;9.706;2022-12-18T04:33:09;-5.40;99.90
4433;DHT22;2229;48.708;9.706;2022-12-18T04:35:38;-5.00;99.90
4433;DHT22;2229;48.708;9.706;2022-12-18T04:38:07;-5.30;99.90
4433;DHT22;2229;48.708;9.706;2022-12-18T04:40:35;-5.30;99.90
4433;DHT22;2229;48.708;9.706;2022-12-18T04:43:07;-5.30;99.90
4433;DHT22;2229;48.708;9.706;2022-12-18T04:45:36;-5.30;99.90
4433;DHT22;2229;48.708;9.706;2022-12-18T04:48:04;-5.30;99.90
4433;DHT22;2229;48.708;9.706;2022-12-18T04:50:32;-5.20;99.90
4433;DHT22;2229;48.708;9.706;2022-12-18T04:52:59;-5.20;99.90
4433;DHT22;2229;48.708;9.706;2022-12-18T04:55:27;-5.20;99.90
4433;DHT22;2229;48.708;9.706;2022-12-18T04:57:54;-5.20;99.90
4433;DHT22;2229;48.708;9.706;2022-12-18T05:00:22;-5.10;99.90
4433;DHT22;2229;48.708;9.706;2022-12-18T05:02:51;-5.10;99.90
4433;DHT22;2229;48.708;9.706;2022-12-18T05:05:18;-5.10;99.90
4433;DHT22;2229;48.708;9.706;2022-12-18T05:07:46;-5.10;99.90
4433;DHT22;2229;48.708;9.706;2022-12-18T05:10:13;-5.10;99.90
4433;DHT22;2229;48.708;9.706;2022-12-18T05:12:41;-5.10;99.90
4433;DHT22;2229;48.708;9.706;2022-12-18T05:15:22;-4.40;99.90
4433;DHT22;2229;48.708;9.706;2022-12-18T05:17:51;-5.10;99.90
4433;DHT22;2229;48.708;9.706;2022-12-18T05:20:18;-5.10;99.90
4433;DHT22;2229;48.708;9.706;2022-12-18T05:22:45;-5.10;99.90
4433;DHT22;2229;48.708;9.706;2022-12-18T05:25:12;-5.10;99.90
4433;DHT22;2229;48.708;9.706;2022-12-18T05:27:39;-5.10;99.90
4433;DHT22;2229;48.708;9.706;2022-12-18T05:30:08;-5.10;99.90
4433;DHT22;2229;48.708;9.706;2022-12-18T05:32:35;-5.10;99.90
4433;DHT22;2229;48.708;9.706;2022-12-18T05:35:06;-5.00;99.90
4433;DHT22;2229;48.708;9.706;2022-12-18T05:37:34;-5.10;99.90
4433;DHT22;2229;48.708;9.706;2022-12-18T05:40:03;-5.10;99.90
4433;DHT22;2229;48.708;9.706;2022-12-18T05:42:31;-5.10;99.90
4433;DHT22;2229;48.708;9.706;2022-12-18T05:44:58;-5.10;99.90
4433;DHT22;2229;48.708;9.706;2022-12-18T05:47:26;-5.10;99.90
4433;DHT22;2229;48.708;9.706;2022-12-18T05:49:54;-5.10;99.90
4433;DHT22;2229;48.708;9.706;2022-12-18T05:52:23;-5.10;99.90
4433;DHT22;2229;48.708;9.706;2022-12-18T05:54:50;-5.10;99.90
4433;DHT22;2229;48.708;9.706;2022-12-18T05:57:17;-5.10;99.90
4433;DHT22;2229;48.708;9.706;2022-12-18T05:59:45;-5.10;99.90
4433;DHT22;2229;48.708;9.706;2022-12-18T06:02:13;-5.10;99.90
4433;DHT22;2229;48.708;9.706;2022-12-18T06:04:40;-4.20;99.90
4433;DHT22;2229;48.708;9.706;2022-12-18T06:07:08;-5.10;99.90
4433;DHT22;2229;48.708;9.706;2022-12-18T06:09:36;-5.00;99.90
4433;DHT22;2229;48.708;9.706;2022-12-18T06:12:04;-5.10;99.90
4433;DHT22;2229;48.708;9.706;2022-12-18T06:14:32;-5.10;99.90
4433;DHT22;2229;48.708;9.706;2022-12-18T06:16:59;-5.10;99.90
4433;DHT22;2229;48.708;9.706;2022-12-18T06:19:27;-5.10;99.90
4433;DHT22;2229;48.708;9.706;2022-12-18T06:21:54;-5.10;99.90
4433;DHT22;2229;48.708;9.706;2022-12-18T06:24:23;-5.10;99.90
4433;DHT22;2229;48.708;9.706;2022-12-18T06:26:52;-5.10;99.90
4433;DHT22;2229;48.708;9.706;2022-12-18T06:29:19;-5.10;99.90
4433;DHT22;2229;48.708;9.706;2022-12-18T06:31:46;-5.10;99.90
4433;DHT22;2229;48.708;9.706;2022-12-18T06:34:14;-5.10;99.90
4433;DHT22;2229;48.708;9.706;2022-12-18T06:36:41;-5.10;99.90
4433;DHT22;2229;48.708;9.706;2022-12-18T06:39:08;-5.10;99.90
4433;DHT22;2229;48.708;9.706;2022-12-18T06:41:36;-5.10;99.90
4433;DHT22;2229;48.708;9.706;2022-12-18T06:44:05;-5.20;99.90
4433;DHT22;2229;48.708;9.706;2022-12-18T06:46:32;-5.10;99.90
4433;DHT22;2229;48.708;9.706;2022-12-18T06:49:00;-5.10;99.90
4433;DHT22;2229;48.708;9.706;2022-12-18T06:51:27;-5.10;99.90
4433;DHT22;2229;48.708;9.706;2022-12-18T06:53:54;-5.10;99.90
4433;DHT22;2229;48.708;9.706;2022-12-18T06:56:21;-5.10;99.90
4433;DHT22;2229;48.708;9.706;2022-12-18T06:58:48;-5.10;99.90
4433;DHT22;2229;48.708;9.706;2022-12-18T07:01:19;-5.10;99.90
4433;DHT22;2229;48.708;9.706;2022-12-18T07:03:51;-5.10;99.90
4433;DHT22;2229;48.708;9.706;2022-12-18T07:06:24;-5.10;99.90
4433;DHT22;2229;48.708;9.706;2022-12-18T07:08:53;-5.10;99.90
4433;DHT22;2229;48.708;9.706;2022-12-18T07:11:24;-4.50;99.90
4433;DHT22;2229;48.708;9.706;2022-12-18T07:13:52;-5.10;99.90
4433;DHT22;2229;48.708;9.706;2022-12-18T07:16:23;-5.10;99.90
4433;DHT22;2229;48.708;9.706;2022-12-18T07:18:57;-5.10;99.90
4433;DHT22;2229;48.708;9.706;2022-12-18T07:21:24;-5.10;99.90
4433;DHT22;2229;48.708;9.706;2022-12-18T07:23:51;-5.10;99.90
4433;DHT22;2229;48.708;9.706;2022-12-18T07:26:20;-5.10;99.90
4433;DHT22;2229;48.708;9.706;2022-12-18T07:28:48;-5.10;99.90
4433;DHT22;2229;48.708;9.706;2022-12-18T07:31:17;-5.10;99.90
4433;DHT22;2229;48.708;9.706;2022-12-18T07:33:46;-5.10;99.90
4433;DHT22;2229;48.708;9.706;2022-12-18T07:36:14;-5.10;99.90
4433;DHT22;2229;48.708;9.706;2022-12-18T07:38:41;-5.00;99.90
4433;DHT22;2229;48.708;9.706;2022-12-18T07:41:10;-5.00;99.90
4433;DHT22;2229;48.708;9.706;2022-12-18T07:43:39;-5.00;99.90
4433;DHT22;2229;48.708;9.706;2022-12-18T07:46:07;-5.00;99.90
4433;DHT22;2229;48.708;9.706;2022-12-18T07:48:35;-5.00;99.90
4433;DHT22;2229;48.708;9.706;2022-12-18T07:51:06;-4.90;99.90
4433;DHT22;2229;48.708;9.706;2022-12-18T07:53:35;-5.00;99.90
4433;DHT22;2229;48.708;9.706;2022-12-18T07:56:04;-5.00;99.90
4433;DHT22;2229;48.708;9.706;2022-12-18T07:58:32;-4.90;99.90
4433;DHT22;2229;48.708;9.706;2022-12-18T08:01:04;-4.80;99.90
4433;DHT22;2229;48.708;9.706;2022-12-18T08:03:31;-4.80;99.90
4433;DHT22;2229;48.708;9.706;2022-12-18T08:06:00;-4.80;99.90
4433;DHT22;2229;48.708;9.706;2022-12-18T08:08:29;-4.70;99.90
4433;DHT22;2229;48.708;9.706;2022-12-18T08:10:58;-4.80;99.90
4433;DHT22;2229;48.708;9.706;2022-12-18T08:13:26;-4.80;99.90
4433;DHT22;2229;48.708;9.706;2022-12-18T08:15:57;-4.70;99.90
4433;DHT22;2229;48.708;9.706;2022-12-18T08:18:25;-4.70;99.90
4433;DHT22;2229;48.708;9.706;2022-12-18T08:20:52;-4.60;99.90
4433;DHT22;2229;48.708;9.706;2022-12-18T08:23:19;-4.60;99.90
4433;DHT22;2229;48.708;9.706;2022-12-18T08:25:48;-4.60;99.90
4433;DHT22;2229;48.708;9.706;2022-12-18T08:28:17;-4.60;99.90
4433;DHT22;2229;48.708;9.706;2022-12-18T08:30:44;-4.50;99.90
4433;DHT22;2229;48.708;9.706;2022-12-18T08:33:12;-4.50;99.90
4433;DHT22;2229;48.708;9.706;2022-12-18T08:35:39;-4.40;99.90
4433;DHT22;2229;48.708;9.706;2022-12-18T08:38:07;-4.30;99.90
4433;DHT22;2229;48.708;9.706;2022-12-18T08:40:34;-4.30;99.90
4433;DHT22;2229;48.708;9.706;2022-12-18T08:43:07;-4.30;99.90
4433;DHT22;2229;48.708;9.706;2022-12-18T08:45:52;-4.20;99.90
4433;DHT22;2229;48.708;9.706;2022-12-18T08:48:19;-4.20;99.90
4433;DHT22;2229;48.708;9.706;2022-12-18T08:50:54;-4.20;99.90
4433;DHT22;2229;48.708;9.706;2022-12-18T08:53:21;-4.20;99.90
4433;DHT22;2229;48.708;9.706;2022-12-18T08:55:49;-4.10;99.90
4433;DHT22;2229;48.708;9.706;2022-12-18T08:58:18;-4.10;99.90
4433;DHT22;2229;48.708;9.706;2022-12-18T09:00:45;-4.00;99.90
4433;DHT22;2229;48.708;9.706;2022-12-18T09:03:16;-3.90;99.90
4433;DHT22;2229;48.708;9.706;2022-12-18T09:05:46;-3.90;99.90
4433;DHT22;2229;48.708;9.706;2022-12-18T09:08:13;-3.80;99.90
4433;DHT22;2229;48.708;9.706;2022-12-18T09:10:42;-3.70;99.90
4433;DHT22;2229;48.708;9.706;2022-12-18T09:13:11;-3.10;99.90
4433;DHT22;2229;48.708;9.706;2022-12-18T09:15:46;-3.50;99.90
4433;DHT22;2229;48.708;9.706;2022-12-18T09:18:15;-3.50;99.90
4433;DHT22;2229;48.708;9.706;2022-12-18T09:20:43;-3.40;99.90
4433;DHT22;2229;48.708;9.706;2022-12-18T09:23:12;-3.40;99.90
4433;DHT22;2229;48.708;9.706;2022-12-18T09:25:41;-3.10;99.90
4433;DHT22;2229;48.708;9.706;2022-12-18T09:28:12;-2.90;99.90
4433;DHT22;2229;48.708;9.706;2022-12-18T09:30:44;-2.70;99.90
4433;DHT22;2229;48.708;9.706;2022-12-18T09:33:12;-2.50;99.90
4433;DHT22;2229;48.708;9.706;2022-12-18T09:35:40;-2.40;99.20
4433;DHT22;2229;48.708;9.706;2022-12-18T09:38:08;-2.00;99.20
4433;DHT22;2229;48.708;9.706;2022-12-18T09:40:41;-1.70;97.90
4433;DHT22;2229;48.708;9.706;2022-12-18T09:43:16;-1.40;96.80
4433;DHT22;2229;48.708;9.706;2022-12-18T09:45:50;-1.00;95.90
4433;DHT22;2229;48.708;9.706;2022-12-18T09:48:22;-0.50;94.80
4433;DHT22;2229;48.708;9.706;2022-12-18T09:50:51;0.00;93.70
4433;DHT22;2229;48.708;9.706;2022-12-18T09:53:24;0.30;91.80
4433;DHT22;2229;48.708;9.706;2022-12-18T09:55:52;0.80;90.90
4433;DHT22;2229;48.708;9.706;2022-12-18T09:58:26;1.30;90.20
4433;DHT22;2229;48.708;9.706;2022-12-18T10:00:56;1.80;87.10
4433;DHT22;2229;48.708;9.706;2022-12-18T10:03:23;1.80;83.30
4433;DHT22;2229;48.708;9.706;2022-12-18T10:05:59;1.90;82.50
4433;DHT22;2229;48.708;9.706;2022-12-18T10:08:37;2.10;82.30
4433;DHT22;2229;48.708;9.706;2022-12-18T10:11:22;2.60;81.90
4433;DHT22;2229;48.708;9.706;2022-12-18T10:13:55;2.80;79.20
4433;DHT22;2229;48.708;9.706;2022-12-18T10:16:32;2.80;76.80
4433;DHT22;2229;48.708;9.706;2022-12-18T10:19:18;2.70;75.80
4433;DHT22;2229;48.708;9.706;2022-12-18T10:21:54;2.90;76.10
4433;DHT22;2229;48.708;9.706;2022-12-18T10:24:28;2.80;73.90
4433;DHT22;2229;48.708;9.706;2022-12-18T10:27:04;2.60;74.20
4433;DHT22;2229;48.708;9.706;2022-12-18T10:29:35;2.40;75.00
4433;DHT22;2229;48.708;9.706;2022-12-18T10:32:04;1.90;74.70
4433;DHT22;2229;48.708;9.706;2022-12-18T10:34:33;1.80;76.00
4433;DHT22;2229;48.708;9.706;2022-12-18T10:37:06;1.80;76.00
4433;DHT22;2229;48.708;9.706;2022-12-18T10:39:33;1.70;76.20
4433;DHT22;2229;48.708;9.706;2022-12-18T10:42:11;1.60;76.50
4433;DHT22;2229;48.708;9.706;2022-12-18T10:44:40;1.70;77.10
4433;DHT22;2229;48.708;9.706;2022-12-18T10:47:12;1.90;76.80
4433;DHT22;2229;48.708;9.706;2022-12-18T10:49:47;1.90;75.60
4433;DHT22;2229;48.708;9.706;2022-12-18T10:52:18;1.80;75.60
4433;DHT22;2229;48.708;9.706;2022-12-18T10:54:51;1.20;76.80
4433;DHT22;2229;48.708;9.706;2022-12-18T10:57:32;0.80;77.80
4433;DHT22;2229;48.708;9.706;2022-12-18T11:00:18;0.20;79.20
4433;DHT22;2229;48.708;9.706;2022-12-18T11:02:49;0.10;81.10
4433;DHT22;2229;48.708;9.706;2022-12-18T11:05:25;-0.20;81.80
4433;DHT22;2229;48.708;9.706;2022-12-18T11:07:53;-0.40;82.60
4433;DHT22;2229;48.708;9.706;2022-12-18T11:10:27;-0.30;83.40
4433;DHT22;2229;48.708;9.706;2022-12-18T11:12:55;-0.30;83.80
4433;DHT22;2229;48.708;9.706;2022-12-18T11:15:26;-0.30;83.60
4433;DHT22;2229;48.708;9.706;2022-12-18T11:17:56;-0.20;84.40
4433;DHT22;2229;48.708;9.706;2022-12-18T11:20:31;-0.30;84.00
4433;DHT22;2229;48.708;9.706;2022-12-18T11:23:01;-0.30;84.30
4433;DHT22;2229;48.708;9.706;2022-12-18T11:25:30;-0.30;84.70
4433;DHT22;2229;48.708;9.706;2022-12-18T11:28:00;-0.40;84.20
4433;DHT22;2229;48.708;9.706;2022-12-18T11:30:29;-0.50;84.90
4433;DHT22;2229;48.708;9.706;2022-12-18T11:33:03;-0.40;85.60
4433;DHT22;2229;48.708;9.706;2022-12-18T11:35:37;-0.40;85.40
4433;DHT22;2229;48.708;9.706;2022-12-18T11:38:16;-0.60;85.40
4433;DHT22;2229;48.708;9.706;2022-12-18T11:40:49;-0.70;86.10
4433;DHT22;2229;48.708;9.706;2022-12-18T11:43:23;-0.90;86.70
4433;DHT22;2229;48.708;9.706;2022-12-18T11:45:55;-0.90;87.80
4433;DHT22;2229;48.708;9.706;2022-12-18T11:48:27;-0.90;87.90
4433;DHT22;2229;48.708;9.706;2022-12-18T11:50:57;-0.90;87.70
4433;DHT22;2229;48.708;9.706;2022-12-18T11:53:29;-1.00;88.10
4433;DHT22;2229;48.708;9.706;2022-12-18T11:56:05;-1.00;88.60
4433;DHT22;2229;48.708;9.706;2022-12-18T11:58:47;-1.10;88.40
4433;DHT22;2229;48.708;9.706;2022-12-18T12:01:28;-1.00;88.50
4433;DHT22;2229;48.708;9.706;2022-12-18T12:07:04;-1.40;88.90
4433;DHT22;2229;48.708;9.706;2022-12-18T12:09:46;-1.50;89.60
4433;DHT22;2229;48.708;9.706;2022-12-18T12:12:35;-1.70;90.00
4433;DHT22;2229;48.708;9.706;2022-12-18T12:15:22;-1.70;90.40
4433;DHT22;2229;48.708;9.706;2022-12-18T12:18:02;-1.70;90.80
4433;DHT22;2229;48.708;9.706;2022-12-18T12:20:43;-1.80;90.70
4433;DHT22;2229;48.708;9.706;2022-12-18T12:23:18;-1.90;90.80
4433;DHT22;2229;48.708;9.706;2022-12-18T12:25:52;-1.80;91.00
4433;DHT22;2229;48.708;9.706;2022-12-18T12:28:32;-1.80;91.20
4433;DHT22;2229;48.708;9.706;2022-12-18T12:31:11;-1.80;91.30
4433;DHT22;2229;48.708;9.706;2022-12-18T12:33:52;-1.80;91.30
4433;DHT22;2229;48.708;9.706;2022-12-18T12:36:31;-1.70;91.30
4433;DHT22;2229;48.708;9.706;2022-12-18T12:39:07;-1.80;91.50
4433;DHT22;2229;48.708;9.706;2022-12-18T12:41:41;-1.80;91.60
4433;DHT22;2229;48.708;9.706;2022-12-18T12:44:29;-1.90;91.50
4433;DHT22;2229;48.708;9.706;2022-12-18T12:47:00;-2.00;91.70
4433;DHT22;2229;48.708;9.706;2022-12-18T12:49:31;-2.00;92.20
4433;DHT22;2229;48.708;9.706;2022-12-18T12:52:14;-2.00;92.10
4433;DHT22;2229;48.708;9.706;2022-12-18T12:54:48;-2.10;92.10
4433;DHT22;2229;48.708;9.706;2022-12-18T12:57:26;-2.10;92.20
4433;DHT22;2229;48.708;9.706;2022-12-18T13:00:04;-2.10;92.40
4433;DHT22;2229;48.708;9.706;2022-12-18T13:02:35;-2.20;99.90
4433;DHT22;2229;48.708;9.706;2022-12-18T13:05:16;-2.10;99.90
4433;DHT22;2229;48.708;9.706;2022-12-18T13:07:50;-1.00;99.90
4433;DHT22;2229;48.708;9.706;2022-12-18T13:10:39;-2.20;99.90
4433;DHT22;2229;48.708;9.706;2022-12-18T13:13:09;-2.30;98.30
4433;DHT22;2229;48.708;9.706;2022-12-18T13:15:42;-2.20;96.50
4433;DHT22;2229;48.708;9.706;2022-12-18T13:21:12;-2.20;94.80
4433;DHT22;2229;48.708;9.706;2022-12-18T13:23:46;-2.20;94.30
4433;DHT22;2229;48.708;9.706;2022-12-18T13:26:31;-2.30;94.50
4433;DHT22;2229;48.708;9.706;2022-12-18T13:29:02;-2.20;94.70
4433;DHT22;2229;48.708;9.706;2022-12-18T13:31:58;-2.30;95.60
4433;DHT22;2229;48.708;9.706;2022-12-18T13:34:30;-2.30;95.60
4433;DHT22;2229;48.708;9.706;2022-12-18T13:37:36;-2.30;95.40
4433;DHT22;2229;48.708;9.706;2022-12-18T13:43:24;-2.30;95.00
4433;DHT22;2229;48.708;9.706;2022-12-18T13:46:03;-2.30;96.30
4433;DHT22;2229;48.708;9.706;2022-12-18T13:48:34;-2.30;95.70
4433;DHT22;2229;48.708;9.706;2022-12-18T13:51:05;-2.40;95.30
4433;DHT22;2229;48.708;9.706;2022-12-18T13:53:42;-2.30;95.20
4433;DHT22;2229;48.708;9.706;2022-12-18T13:58:45;-2.40;94.00
4433;DHT22;2229;48.708;9.706;2022-12-18T14:01:22;-2.40;94.50
4433;DHT22;2229;48.708;9.706;2022-12-18T14:04:09;-2.40;94.60
4433;DHT22;2229;48.708;9.706;2022-12-18T14:06:36;-2.40;94.60
4433;DHT22;2229;48.708;9.706;2022-12-18T14:09:03;-2.40;94.80
4433;DHT22;2229;48.708;9.706;2022-12-18T14:11:35;-2.50;94.70
4433;DHT22;2229;48.708;9.706;2022-12-18T14:14:04;-2.50;94.80
4433;DHT22;2229;48.708;9.706;2022-12-18T14:16:34;-2.50;95.00
4433;DHT22;2229;48.708;9.706;2022-12-18T14:19:02;-2.50;95.00
4433;DHT22;2229;48.708;9.706;2022-12-18T14:21:30;-2.50;94.90
4433;DHT22;2229;48.708;9.706;2022-12-18T14:24:14;-2.60;95.00
4433;DHT22;2229;48.708;9.706;2022-12-18T14:26:43;-2.60;95.10
4433;DHT22;2229;48.708;9.706;2022-12-18T14:29:31;-2.70;95.10
4433;DHT22;2229;48.708;9.706;2022-12-18T14:32:09;-2.90;95.30
4433;DHT22;2229;48.708;9.706;2022-12-18T14:34:38;-2.70;95.40
4433;DHT22;2229;48.708;9.706;2022-12-18T14:37:09;-2.80;95.50
4433;DHT22;2229;48.708;9.706;2022-12-18T14:39:37;-2.80;95.60
4433;DHT22;2229;48.708;9.706;2022-12-18T14:42:04;-2.90;96.10
4433;DHT22;2229;48.708;9.706;2022-12-18T14:44:33;-2.90;95.90
4433;DHT22;2229;48.708;9.706;2022-12-18T14:47:01;-2.90;96.10
4433;DHT22;2229;48.708;9.706;2022-12-18T14:49:31;-2.90;96.10
4433;DHT22;2229;48.708;9.706;2022-12-18T14:52:03;-3.00;96.30
4433;DHT22;2229;48.708;9.706;2022-12-18T14:54:34;-3.00;96.40
4433;DHT22;2229;48.708;9.706;2022-12-18T14:57:05;-3.10;96.50
4433;DHT22;2229;48.708;9.706;2022-12-18T14:59:34;-3.00;96.60
4433;DHT22;2229;48.708;9.706;2022-12-18T15:02:04;-3.10;96.60
4433;DHT22;2229;48.708;9.706;2022-12-18T15:04:39;-3.10;97.00
4433;DHT22;2229;48.708;9.706;2022-12-18T15:07:13;-3.10;96.90
4433;DHT22;2229;48.708;9.706;2022-12-18T15:10:02;-3.20;97.00
4433;DHT22;2229;48.708;9.706;2022-12-18T15:12:34;-3.50;97.00
4433;DHT22;2229;48.708;9.706;2022-12-18T15:17:47;-3.30;97.20
4433;DHT22;2229;48.708;9.706;2022-12-18T15:20:18;-3.30;97.40
4433;DHT22;2229;48.708;9.706;2022-12-18T15:22:47;-3.40;97.50
4433;DHT22;2229;48.708;9.706;2022-12-18T15:25:26;-3.40;97.70
4433;DHT22;2229;48.708;9.706;2022-12-18T15:27:56;-3.50;97.90
4433;DHT22;2229;48.708;9.706;2022-12-18T15:30:25;-3.50;98.00
4433;DHT22;2229;48.708;9.706;2022-12-18T15:33:22;-3.60;98.20
4433;DHT22;2229;48.708;9.706;2022-12-18T15:35:56;-3.60;98.40
4433;DHT22;2229;48.708;9.706;2022-12-18T15:38:24;-3.60;98.70
4433;DHT22;2229;48.708;9.706;2022-12-18T15:40:52;-3.60;98.90
4433;DHT22;2229;48.708;9.706;2022-12-18T15:43:21;-3.70;99.10
4433;DHT22;2229;48.708;9.706;2022-12-18T15:46:04;-3.60;99.50
4433;DHT22;2229;48.708;9.706;2022-12-18T15:48:39;-3.70;99.60
4433;DHT22;2229;48.708;9.706;2022-12-18T15:51:13;-3.70;99.80
4433;DHT22;2229;48.708;9.706;2022-12-18T15:53:41;-3.70;99.90
4433;DHT22;2229;48.708;9.706;2022-12-18T15:56:10;-3.80;99.90
4433;DHT22;2229;48.708;9.706;2022-12-18T15:58:56;-3.70;99.90
4433;DHT22;2229;48.708;9.706;2022-12-18T16:01:26;-3.80;99.90
4433;DHT22;2229;48.708;9.706;2022-12-18T16:03:54;-3.80;99.90
4433;DHT22;2229;48.708;9.706;2022-12-18T16:06:22;-3.90;99.90
4433;DHT22;2229;48.708;9.706;2022-12-18T16:08:49;-3.90;99.90
4433;DHT22;2229;48.708;9.706;2022-12-18T16:11:21;-3.90;99.90
4433;DHT22;2229;48.708;9.706;2022-12-18T16:14:04;-3.80;99.90
4433;DHT22;2229;48.708;9.706;2022-12-18T16:16:33;-3.70;99.90
4433;DHT22;2229;48.708;9.706;2022-12-18T16:19:00;-3.80;99.90
4433;DHT22;2229;48.708;9.706;2022-12-18T16:21:27;-3.90;99.90
4433;DHT22;2229;48.708;9.706;2022-12-18T16:23:55;-3.90;99.90
4433;DHT22;2229;48.708;9.706;2022-12-18T16:26:22;-3.90;99.90
4433;DHT22;2229;48.708;9.706;2022-12-18T16:28:49;-3.90;99.90
4433;DHT22;2229;48.708;9.706;2022-12-18T16:31:18;-4.00;99.90
4433;DHT22;2229;48.708;9.706;2022-12-18T16:33:48;-4.00;99.90
4433;DHT22;2229;48.708;9.706;2022-12-18T16:36:15;-4.00;99.90
4433;DHT22;2229;48.708;9.706;2022-12-18T16:38:42;-4.00;99.90
4433;DHT22;2229;48.708;9.706;2022-12-18T16:41:18;-4.00;99.90
4433;DHT22;2229;48.708;9.706;2022-12-18T16:43:58;-4.00;99.90
4433;DHT22;2229;48.708;9.706;2022-12-18T16:46:25;-4.00;99.90